Time;durP1;ratioP1;P1;durP2;ratioP2;P2;SDS_P1;SDS_P2;PMS_P1;PMS_P2;Temp;Humidity;BMP_temperature;BMP_pressure;BME280_temperature;BME280_humidity;BME280_pressure;Samples;Min_cycle;Max_cycle;Signal;HPM_P1;HPM_P2
2022/07/07 00:00:29;;;;;;;5.67;1.27;;;;;;;15.84;59.24;101344.31;1678985;83;21051;-94
2022/07/07 00:02:58;;;;;;;6.05;1.30;;;;;;;15.83;59.27;101343.88;1677354;83;21620;-94
2022/07/07 00:05:28;;;;;;;3.83;1.57;;;;;;;15.81;59.28;101338.53;1678477;83;21744;-93
2022/07/07 00:07:56;;;;;;;4.65;1.22;;;;;;;15.83;59.34;101335.91;1657265;85;21022;-92
2022/07/07 00:10:36;;;;;;;5.55;1.10;;;;;;;15.85;59.35;101331.51;1676897;83;21130;-93
2022/07/07 00:13:07;;;;;;;3.08;1.32;;;;;;;15.85;59.35;101324.87;1678118;85;21560;-93
2022/07/07 00:15:35;;;;;;;7.30;1.30;;;;;;;15.86;59.40;101323.98;1678090;83;21019;-94
2022/07/07 00:18:02;;;;;;;4.70;1.27;;;;;;;15.80;59.36;101315.50;1677881;85;21755;-92
2022/07/07 00:20:30;;;;;;;7.40;1.30;;;;;;;15.87;59.39;101327.98;1678429;83;21069;-94
2022/07/07 00:23:10;;;;;;;3.77;1.10;;;;;;;15.89;59.46;101327.56;1677790;83;21121;-93
2022/07/07 00:25:31;;;;;;;3.58;1.15;;;;;;;15.89;59.46;101320.93;1672399;83;21075;-93
2022/07/07 00:27:58;;;;;;;3.65;0.98;;;;;;;15.89;59.52;101320.93;1678160;83;21046;-94
2022/07/07 00:30:29;;;;;;;6.67;1.40;;;;;;;15.90;59.55;101321.84;1678369;83;21701;-94
2022/07/07 00:32:59;;;;;;;5.03;0.90;;;;;;;15.81;59.52;101305.80;1658027;83;21055;-94
2022/07/07 00:35:31;;;;;;;4.40;1.25;;;;;;;15.88;59.60;101319.61;1676871;83;21014;-94
2022/07/07 00:37:58;;;;;;;5.20;1.60;;;;;;;15.86;59.66;101317.34;1674116;83;21094;-94
2022/07/07 00:40:25;;;;;;;2.52;0.90;;;;;;;15.85;59.75;101319.12;1678615;83;22749;-93
2022/07/07 00:42:57;;;;;;;7.28;1.45;;;;;;;15.83;59.78;101314.67;1677772;83;21099;-93
2022/07/07 00:45:31;;;;;;;2.67;1.00;;;;;;;15.81;59.85;101314.64;1658002;85;21596;-94
2022/07/07 00:47:55;;;;;;;8.03;1.27;;;;;;;15.81;59.96;101316.42;1678960;83;21126;-94
2022/07/07 00:50:29;;;;;;;8.03;1.50;;;;;;;15.80;59.96;101313.30;1678293;85;21058;-92
2022/07/07 00:52:56;;;;;;;4.72;1.15;;;;;;;15.78;60.04;101302.66;1677775;83;21086;-92
2022/07/07 00:55:26;;;;;;;5.62;1.30;;;;;;;15.78;60.18;101300.00;1678218;83;22030;-93
2022/07/07 00:57:51;;;;;;;6.05;1.17;;;;;;;15.78;60.23;101296.46;1677349;83;21090;-92
2022/07/07 01:00:21;;;;;;;6.67;1.30;;;;;;;15.76;60.28;101295.11;1678538;83;21050;-92
2022/07/07 01:02:47;;;;;;;2.60;0.95;;;;;;;15.74;60.33;101291.55;1677526;83;21095;-93
2022/07/07 01:05:17;;;;;;;4.58;1.47;;;;;;;15.74;60.40;101293.76;1678622;84;21648;-92
2022/07/07 01:07:43;;;;;;;4.05;1.47;;;;;;;15.74;60.44;101289.77;1678595;83;21764;-93
2022/07/07 01:10:20;;;;;;;4.97;1.30;;;;;;;15.73;60.50;101291.08;1678343;83;21632;-93
2022/07/07 01:12:50;;;;;;;7.20;1.30;;;;;;;15.71;60.53;101283.09;1661965;85;21087;-92
2022/07/07 01:15:20;;;;;;;3.75;1.32;;;;;;;15.70;60.64;101283.95;1678950;83;21086;-93
2022/07/07 01:17:51;;;;;;;6.60;1.30;;;;;;;15.72;60.74;101285.30;1678821;83;21094;-92
2022/07/07 01:20:22;;;;;;;3.77;1.20;;;;;;;15.70;60.77;101285.27;1680131;83;22497;-93
2022/07/07 01:22:55;;;;;;;5.75;1.22;;;;;;;15.65;60.81;101281.66;1677349;83;21047;-93
2022/07/07 01:25:30;;;;;;;4.92;1.62;;;;;;;15.63;60.90;101279.42;1676863;83;21086;-93
2022/07/07 01:27:58;;;;;;;5.60;1.42;;;;;;;15.63;61.00;101282.08;1677260;83;21161;-92
2022/07/07 01:30:39;;;;;;;3.42;1.17;;;;;;;15.60;61.00;101274.11;1670742;83;21177;-93
2022/07/07 01:33:10;;;;;;;1.85;1.00;;;;;;;15.58;61.09;101274.94;1677932;83;21773;-93
2022/07/07 01:35:38;;;;;;;2.77;1.10;;;;;;;15.55;61.15;101276.68;1641104;85;21154;-94
2022/07/07 01:38:16;;;;;;;4.97;1.45;;;;;;;15.52;61.27;101268.70;1678028;85;21035;-92
2022/07/07 01:41:04;;;;;;;5.65;1.17;;;;;;;15.52;61.31;101270.03;1676550;83;21502;-92
2022/07/07 01:43:42;;;;;;;4.85;1.15;;;;;;;15.52;61.33;101269.11;1677450;85;21111;-91
2022/07/07 01:46:22;;;;;;;4.60;1.20;;;;;;;15.51;61.45;101270.00;1677136;83;21825;-91
2022/07/07 01:48:58;;;;;;;;;;;;;;;;;;;;;
2022/07/07 01:51:22;;;;;;;3.00;1.15;;;;;;;15.47;61.50;101269.07;1675154;83;21103;-91
2022/07/07 01:53:48;;;;;;;4.65;1.22;;;;;;;15.44;61.56;101267.69;1678432;83;21095;-92
2022/07/07 01:56:18;;;;;;;3.40;1.30;;;;;;;15.44;61.65;101270.34;1678039;83;21126;-91
2022/07/07 01:58:47;;;;;;;3.62;1.00;;;;;;;15.45;61.69;101262.85;1677994;83;21753;-92
2022/07/07 02:01:30;;;;;;;6.87;2.65;;;;;;;15.46;61.73;101261.08;1678294;83;21130;-92
2022/07/07 02:03:49;;;;;;;5.85;1.70;;;;;;;15.44;61.75;101265.03;1673806;83;21616;-92
2022/07/07 02:06:19;;;;;;;5.40;1.60;;;;;;;15.44;61.79;101266.81;1677814;83;21071;-93
2022/07/07 02:08:50;;;;;;;2.72;1.00;;;;;;;15.43;61.79;101267.25;1654786;85;22120;-93
2022/07/07 02:11:23;;;;;;;5.05;1.25;;;;;;;15.43;61.83;101267.66;1678175;83;22615;-92
2022/07/07 02:13:52;;;;;;;4.45;0.95;;;;;;;15.45;61.86;101261.97;1677667;84;21082;-93
2022/07/07 02:16:27;;;;;;;4.75;1.17;;;;;;;15.39;61.88;101252.58;1656280;84;21044;-93
2022/07/07 02:18:57;;;;;;;3.77;1.17;;;;;;;15.45;61.88;101256.67;1657139;83;21134;-91
2022/07/07 02:21:31;;;;;;;3.30;1.17;;;;;;;15.45;61.94;101259.32;1678144;85;21572;-92
2022/07/07 02:24:17;;;;;;;5.70;1.22;;;;;;;15.45;61.93;101253.56;1678417;83;21872;-92
2022/07/07 02:26:50;;;;;;;3.45;1.25;;;;;;;15.46;62.03;101254.45;1656121;84;21464;-91
2022/07/07 02:29:15;;;;;;;4.00;1.32;;;;;;;15.48;62.02;101252.70;1677775;83;21662;-93
2022/07/07 02:31:50;;;;;;;7.50;1.00;;;;;;;15.47;62.02;101254.92;1678158;83;22199;-92
2022/07/07 02:34:14;;;;;;;3.12;1.05;;;;;;;15.45;62.03;101243.41;1673506;83;21189;-92
2022/07/07 02:36:42;;;;;;;4.67;1.32;;;;;;;15.43;62.06;101253.07;1671285;83;22438;-93
2022/07/07 02:39:10;;;;;;;3.60;1.30;;;;;;;15.41;62.13;101243.80;1677845;83;21090;-93
2022/07/07 02:41:53;;;;;;;6.65;1.10;;;;;;;15.40;62.17;101246.42;1657655;84;21091;-92
2022/07/07 02:44:13;;;;;;;6.17;1.05;;;;;;;15.38;62.26;101243.74;1673421;83;21129;-93
2022/07/07 02:46:42;;;;;;;5.75;1.17;;;;;;;15.38;62.34;101246.39;1675656;83;21157;-92
2022/07/07 02:49:12;;;;;;;5.80;1.30;;;;;;;15.38;62.36;101244.19;1673106;85;21909;-91
2022/07/07 02:51:41;;;;;;;4.47;1.40;;;;;;;15.39;62.41;101239.32;1662788;84;21071;-91
2022/07/07 02:54:10;;;;;;;6.72;1.47;;;;;;;15.40;62.44;101243.77;1682317;84;21106;-91
2022/07/07 02:56:36;;;;;;;5.40;1.20;;;;;;;15.41;62.41;101241.55;1673655;84;21084;-91
2022/07/07 02:59:04;;;;;;;3.42;0.95;;;;;;;15.41;62.40;101242.88;1655697;85;21104;-93
2022/07/07 03:01:31;;;;;;;5.55;1.25;;;;;;;15.42;62.45;101244.67;1678187;83;21738;-95
2022/07/07 03:04:07;;;;;;;6.62;1.07;;;;;;;15.41;62.42;101244.20;1654399;85;21074;-94
2022/07/07 03:06:34;;;;;;;3.92;1.02;;;;;;;15.40;62.42;101243.33;1667712;85;21087;-94
2022/07/07 03:09:09;;;;;;;3.98;1.35;;;;;;;15.43;62.40;101238.48;1634599;84;21150;-93
2022/07/07 03:11:39;;;;;;;4.05;1.90;;;;;;;15.44;62.38;101240.28;1665710;84;21138;-94
2022/07/07 03:14:08;;;;;;;6.17;1.65;;;;;;;15.45;62.41;101241.62;1669421;85;21759;-94
2022/07/07 03:16:53;;;;;;;4.42;1.05;;;;;;;15.47;62.40;101245.64;1645715;85;21141;-94
2022/07/07 03:19:26;;;;;;;4.03;1.75;;;;;;;15.49;62.32;101242.12;1653509;85;21094;-94
2022/07/07 03:22:01;;;;;;;3.40;1.10;;;;;;;15.54;62.30;101242.16;1661498;85;21398;-94
2022/07/07 03:24:34;;;;;;;4.25;0.93;;;;;;;15.56;62.25;101237.80;1668727;85;21122;-94
2022/07/07 03:27:02;;;;;;;1.92;0.90;;;;;;;15.60;62.26;101236.95;1661810;84;21822;-95
2022/07/07 03:29:37;;;;;;;3.50;0.98;;;;;;;15.65;62.17;101237.88;1649852;85;21114;-94
2022/07/07 03:34:55;;;;;;;3.15;1.10;;;;;;;15.71;62.13;101231.75;1576545;89;21443;-86
2022/07/07 03:37:22;;;;;;;3.90;1.05;;;;;;;15.74;62.12;101227.84;1543957;91;21149;-86
2022/07/07 03:39:48;;;;;;;1.98;0.90;;;;;;;15.78;62.12;101231.43;1616718;87;21776;-86
2022/07/07 03:42:15;;;;;;;4.80;1.10;;;;;;;15.81;62.03;101228.83;1631487;87;21103;-86
2022/07/07 03:44:44;;;;;;;5.58;1.15;;;;;;;15.82;62.00;101222.63;1621620;87;21146;-85
2022/07/07 03:47:13;;;;;;;5.83;1.32;;;;;;;15.83;61.94;101221.32;1620316;86;21100;-86
2022/07/07 03:49:40;;;;;;;3.60;0.95;;;;;;;15.84;61.89;101223.52;1602785;88;21106;-85
2022/07/07 03:52:08;;;;;;;2.02;1.00;;;;;;;15.84;61.83;101218.22;1630493;86;22573;-86
2022/07/07 03:54:35;;;;;;;3.27;1.15;;;;;;;15.86;61.78;101224.02;1629167;87;21080;-86
2022/07/07 03:57:02;;;;;;;5.03;1.37;;;;;;;15.88;61.76;101224.05;1612098;88;21123;-86
2022/07/07 03:59:29;;;;;;;5.25;1.50;;;;;;;15.91;61.72;101223.61;1613596;87;21135;-86
2022/07/07 04:01:56;;;;;;;7.28;1.25;;;;;;;15.95;61.74;101225.86;1630285;87;21151;-86
2022/07/07 04:04:23;;;;;;;7.35;1.50;;;;;;;16.01;61.70;101224.62;1622542;87;22398;-86
2022/07/07 04:06:50;;;;;;;4.58;1.10;;;;;;;16.07;61.68;101230.43;1682234;83;21086;-85
2022/07/07 04:09:16;;;;;;;9.15;1.22;;;;;;;16.15;61.63;101233.16;1678316;84;21098;-86
2022/07/07 04:11:43;;;;;;;4.30;1.20;;;;;;;16.22;61.53;101221.28;1674351;85;21079;-85
2022/07/07 04:14:10;;;;;;;4.95;1.70;;;;;;;16.29;61.44;101219.14;1671539;85;21105;-85
2022/07/07 04:16:36;;;;;;;6.20;1.30;;;;;;;16.37;61.32;101216.55;1682221;83;21669;-86
2022/07/07 04:19:03;;;;;;;4.85;1.40;;;;;;;16.48;61.18;101215.31;1677332;85;21090;-84
2022/07/07 04:21:31;;;;;;;5.35;1.15;;;;;;;16.58;61.03;101217.15;1681470;84;21046;-87
2022/07/07 04:23:57;;;;;;;5.12;1.30;;;;;;;16.64;60.85;101222.50;1677083;85;21101;-88
2022/07/07 04:26:24;;;;;;;3.27;1.20;;;;;;;16.72;60.70;101219.90;1680525;84;21149;-84
2022/07/07 04:28:51;;;;;;;5.95;1.12;;;;;;;16.82;60.61;101218.22;1678869;84;21729;-85
2022/07/07 04:31:18;;;;;;;4.50;1.55;;;;;;;16.92;60.40;101218.75;1678689;85;21081;-86
2022/07/07 04:33:46;;;;;;;6.17;2.10;;;;;;;17.02;60.23;101215.25;1680611;83;21372;-85
2022/07/07 04:36:14;;;;;;;6.65;2.00;;;;;;;17.12;60.02;101213.56;1685564;84;21133;-87
2022/07/07 04:38:41;;;;;;;3.92;1.50;;;;;;;17.23;59.93;101214.92;1688630;84;21544;-86
2022/07/07 04:41:07;;;;;;;4.83;1.27;;;;;;;17.39;59.79;101216.78;1654551;85;22557;-87
2022/07/07 04:43:37;;;;;;;5.10;1.40;;;;;;;17.52;59.49;101221.72;1682159;84;21530;-83
2022/07/07 04:46:04;;;;;;;2.75;1.22;;;;;;;17.66;59.38;101216.02;1685096;83;21070;-84
2022/07/07 04:48:31;;;;;;;7.30;1.00;;;;;;;17.81;59.03;101222.25;1690964;82;21058;-85
2022/07/07 04:50:58;;;;;;;5.70;1.22;;;;;;;18.01;58.84;101223.67;1681935;84;21113;-85
2022/07/07 04:53:24;;;;;;;3.40;0.90;;;;;;;18.15;58.51;101225.02;1684527;84;22725;-86
2022/07/07 04:55:55;;;;;;;9.20;1.52;;;;;;;18.24;58.35;101215.70;1673972;84;21123;-91
2022/07/07 04:58:21;;;;;;;4.03;1.80;;;;;;;18.47;58.17;101219.73;1653066;86;21169;-86
2022/07/07 05:00:48;;;;;;;6.30;1.20;;;;;;;18.60;57.73;101213.92;1684445;84;21092;-86
2022/07/07 05:03:15;;;;;;;5.05;1.30;;;;;;;18.68;57.41;101216.16;1686335;83;21113;-85
2022/07/07 05:05:42;;;;;;;10.45;1.35;;;;;;;18.82;57.39;101217.04;1680861;84;22569;-86
2022/07/07 05:08:08;;;;;;;5.00;1.05;;;;;;;19.14;57.26;101213.87;1688661;83;21070;-88
2022/07/07 05:10:35;;;;;;;4.95;1.32;;;;;;;19.70;56.73;101216.75;1688532;83;21129;-86
2022/07/07 05:13:12;;;;;;;3.72;1.20;;;;;;;20.18;56.97;101216.05;1693420;83;21502;-88
2022/07/07 05:15:39;;;;;;;7.37;1.50;;;;;;;22.93;58.51;101202.72;1687493;83;21024;-92
2022/07/07 05:18:05;;;;;;;7.45;1.20;;;;;;;26.37;55.76;101199.70;1687139;84;21705;-92
2022/07/07 05:20:44;;;;;;;3.92;1.10;;;;;;;28.62;51.75;101205.19;1684841;84;21058;-92
2022/07/07 05:23:33;;;;;;;3.25;1.00;;;;;;;30.34;49.77;101194.49;1681582;84;21018;-96
2022/07/07 05:26:13;;;;;;;4.10;1.00;;;;;;;32.00;46.23;101202.83;1689190;84;21085;-92
2022/07/07 05:28:43;;;;;;;5.42;1.20;;;;;;;33.41;44.06;101197.52;1688913;84;21069;-91
2022/07/07 05:31:19;;;;;;;5.42;1.60;;;;;;;34.78;42.11;101200.75;1685545;84;21839;-90
2022/07/07 05:33:46;;;;;;;4.47;0.90;;;;;;;35.98;40.75;101206.72;1690361;83;21094;-89
2022/07/07 05:36:13;;;;;;;6.83;1.50;;;;;;;37.22;38.30;101201.33;1689168;84;21087;-91
2022/07/07 05:38:40;;;;;;;7.35;1.37;;;;;;;38.01;36.53;101199.42;1673871;84;21166;-89
2022/07/07 05:41:08;;;;;;;1.90;0.78;;;;;;;38.37;34.89;101197.80;1687508;84;21295;-88
2022/07/07 05:43:35;;;;;;;6.33;1.25;;;;;;;38.37;33.66;101194.56;1667169;85;21823;-89
2022/07/07 05:46:09;;;;;;;4.08;1.22;;;;;;;38.02;32.15;101198.91;1675867;84;21097;-89
2022/07/07 05:48:35;;;;;;;6.60;1.10;;;;;;;35.96;30.86;101192.73;1674090;84;21536;-85
2022/07/07 05:51:02;;;;;;;4.65;0.95;;;;;;;33.51;31.41;101198.20;1688968;84;21141;-85
2022/07/07 05:53:29;;;;;;;2.67;1.20;;;;;;;31.71;32.08;101191.78;1693577;83;21055;-87
2022/07/07 05:55:57;;;;;;;2.80;0.90;;;;;;;30.09;32.67;101194.83;1691492;84;21784;-90
2022/07/07 05:58:25;;;;;;;6.00;1.17;;;;;;;28.63;33.48;101191.58;1693849;83;21051;-87
2022/07/07 06:00:55;;;;;;;4.95;1.20;;;;;;;27.54;34.38;101195.52;1691455;84;21366;-87
2022/07/07 06:03:22;;;;;;;4.85;1.20;;;;;;;26.54;35.06;101192.81;1689560;84;21647;-85
2022/07/07 06:05:49;;;;;;;7.65;1.25;;;;;;;25.68;35.81;101190.23;1677904;84;21070;-87
2022/07/07 06:08:17;;;;;;;3.10;1.05;;;;;;;24.95;36.43;101194.98;1687579;84;21758;-89
2022/07/07 06:10:45;;;;;;;4.28;1.30;;;;;;;24.26;37.15;101193.59;1694878;84;21078;-86
2022/07/07 06:13:15;;;;;;;4.92;1.00;;;;;;;23.73;37.86;101194.86;1695446;84;21576;-87
2022/07/07 06:15:42;;;;;;;4.95;1.07;;;;;;;23.34;38.45;101193.45;1686330;84;21078;-86
2022/07/07 06:18:14;;;;;;;3.55;0.65;;;;;;;23.02;38.97;101193.15;1675633;84;21086;-87
2022/07/07 06:20:41;;;;;;;8.00;1.30;;;;;;;22.82;39.50;101183.25;1682924;84;21843;-86
2022/07/07 06:23:08;;;;;;;2.92;0.88;;;;;;;22.63;40.00;101182.24;1686799;84;21058;-87
2022/07/07 06:25:37;;;;;;;3.80;1.15;;;;;;;22.39;40.18;101183.59;1690503;84;21098;-86
2022/07/07 06:28:04;;;;;;;2.65;1.10;;;;;;;22.08;40.52;101177.80;1684393;84;21118;-87
2022/07/07 06:30:39;;;;;;;3.08;1.27;;;;;;;21.84;41.00;101185.30;1675377;84;21134;-88
2022/07/07 06:33:06;;;;;;;4.33;1.35;;;;;;;21.66;41.24;101179.77;1667964;86;22576;-90
2022/07/07 06:35:33;;;;;;;3.50;1.07;;;;;;;21.53;41.70;101175.48;1678411;85;21078;-88
2022/07/07 06:38:00;;;;;;;6.62;1.35;;;;;;;21.47;42.14;101170.19;1697307;84;21114;-85
2022/07/07 06:40:27;;;;;;;4.42;1.05;;;;;;;21.40;42.20;101172.47;1698157;84;21074;-85
2022/07/07 06:42:54;;;;;;;3.17;1.72;;;;;;;21.30;42.45;101159.66;1696446;84;21135;-87
2022/07/07 06:45:24;;;;;;;3.37;1.02;;;;;;;21.22;42.84;101167.80;1697132;83;22555;-86
2022/07/07 06:47:51;;;;;;;4.42;1.00;;;;;;;21.19;42.91;101164.27;1662241;84;21143;-89
2022/07/07 06:50:18;;;;;;;1.82;0.70;;;;;;;21.13;43.04;101163.47;1683043;84;21031;-88
2022/07/07 06:52:45;;;;;;;2.55;0.85;;;;;;;21.07;43.24;101163.52;1690605;84;21098;-86
2022/07/07 06:55:12;;;;;;;3.15;0.85;;;;;;;20.84;43.19;101124.98;1686423;84;21090;-88
2022/07/07 06:57:39;;;;;;;5.17;2.40;;;;;;;21.00;43.27;101164.48;1677989;84;21755;-86
2022/07/07 07:00:10;;;;;;;3.17;0.88;;;;;;;20.98;43.53;101160.94;1621281;87;21259;-86
2022/07/07 07:02:42;;;;;;;2.58;1.10;;;;;;;21.00;43.35;101160.94;1624741;87;21161;-87
2022/07/07 07:05:09;;;;;;;4.83;2.03;;;;;;;20.94;43.30;101165.44;1698620;84;21066;-86
2022/07/07 07:07:38;;;;;;;1.77;0.93;;;;;;;20.95;43.67;101159.66;1689323;84;21595;-88
2022/07/07 07:10:06;;;;;;;3.08;0.95;;;;;;;20.97;43.87;101157.85;1677302;84;21773;-88
2022/07/07 07:12:32;;;;;;;3.87;0.82;;;;;;;21.07;44.08;101152.81;1678248;84;21097;-86
2022/07/07 07:14:59;;;;;;;4.12;1.10;;;;;;;21.22;44.23;101154.88;1678953;84;21082;-87
2022/07/07 07:17:26;;;;;;;3.92;0.95;;;;;;;21.33;44.02;101152.95;1692978;84;21581;-88
2022/07/07 07:19:53;;;;;;;3.60;1.22;;;;;;;21.41;43.99;101155.05;1677871;85;21611;-87
2022/07/07 07:22:20;;;;;;;4.10;0.90;;;;;;;21.49;43.83;101142.50;1678986;84;22722;-87
2022/07/07 07:24:46;;;;;;;3.62;0.98;;;;;;;21.69;44.11;101140.85;1679163;85;21093;-87
2022/07/07 07:27:14;;;;;;;4.53;1.20;;;;;;;21.88;43.84;101125.37;1679567;84;21122;-88
2022/07/07 07:29:50;;;;;;;2.20;0.62;;;;;;;21.99;43.51;101143.97;1686959;83;21013;-87
2022/07/07 07:32:24;;;;;;;3.50;0.70;;;;;;;22.14;43.49;101146.39;1696937;84;21102;-89
2022/07/07 07:34:51;;;;;;;3.12;0.70;;;;;;;22.23;43.06;101140.00;1678037;84;22745;-89
2022/07/07 07:37:18;;;;;;;4.15;0.70;;;;;;;22.23;43.03;101140.00;1674893;84;21077;-88
2022/07/07 07:39:45;;;;;;;3.92;0.88;;;;;;;22.13;42.85;101141.09;1681923;84;21082;-87
2022/07/07 07:42:12;;;;;;;3.60;0.80;;;;;;;22.03;43.05;101132.28;1679752;84;21103;-88
2022/07/07 07:47:26;;;;;;;3.77;1.02;;;;;;;22.35;42.84;101137.59;1676742;83;40136;-88
2022/07/07 07:49:56;;;;;;;4.37;1.12;;;;;;;22.51;42.45;101139.09;1664660;83;21181;-88
2022/07/07 07:52:23;;;;;;;3.52;0.70;;;;;;;22.58;42.35;101138.53;1683367;83;21148;-87
2022/07/07 07:54:50;;;;;;;4.40;1.20;;;;;;;22.67;42.10;101134.78;1676261;83;21085;-87
2022/07/07 07:57:17;;;;;;;2.98;0.82;;;;;;;22.68;42.01;101133.88;1674024;83;21124;-89
2022/07/07 07:59:44;;;;;;;5.53;1.07;;;;;;;22.71;42.03;101136.05;1679045;83;21446;-88
2022/07/07 08:02:11;;;;;;;7.22;1.32;;;;;;;22.87;42.00;101138.42;1688764;83;21055;-88
2022/07/07 08:04:38;;;;;;;3.75;0.90;;;;;;;23.04;41.74;101142.14;1686272;84;21081;-88
2022/07/07 08:07:05;;;;;;;2.58;1.00;;;;;;;23.22;41.50;101143.11;1679406;83;21567;-88
2022/07/07 08:09:32;;;;;;;5.37;1.10;;;;;;;23.42;41.21;101140.44;1669382;84;21137;-88
2022/07/07 08:11:59;;;;;;;3.25;0.85;;;;;;;23.52;41.16;101143.36;1679972;84;21196;-88
2022/07/07 08:14:26;;;;;;;4.08;0.85;;;;;;;23.59;41.20;101137.38;1684051;84;21041;-88
2022/07/07 08:16:53;;;;;;;3.72;0.60;;;;;;;23.72;41.20;101144.23;1675030;84;21088;-88
2022/07/07 08:19:20;;;;;;;5.37;1.00;;;;;;;23.85;40.94;101144.39;1671295;84;21265;-89
2022/07/07 08:21:47;;;;;;;6.90;1.07;;;;;;;24.03;40.76;101143.55;1675781;83;21084;-88
2022/07/07 08:24:16;;;;;;;1.80;0.60;;;;;;;24.05;40.26;101153.33;1685541;84;21792;-88
2022/07/07 08:26:43;;;;;;;4.97;1.27;;;;;;;24.01;40.42;101146.27;1683179;84;21141;-87
2022/07/07 08:29:10;;;;;;;3.17;0.78;;;;;;;24.04;40.15;101153.36;1687292;84;21087;-89
2022/07/07 08:31:37;;;;;;;3.65;0.95;;;;;;;24.00;40.07;101151.20;1675565;84;21187;-89
2022/07/07 08:34:05;;;;;;;3.37;1.07;;;;;;;24.03;40.00;101150.27;1702487;83;21053;-88
2022/07/07 08:36:32;;;;;;;1.60;0.57;;;;;;;24.03;40.07;101154.30;1671441;83;21800;-88
2022/07/07 08:38:59;;;;;;;2.42;0.70;;;;;;;23.95;40.02;101151.80;1670739;84;21062;-88
2022/07/07 08:41:26;;;;;;;3.83;1.00;;;;;;;23.98;40.18;101149.48;1688505;84;21117;-87
2022/07/07 08:43:55;;;;;;;2.83;0.85;;;;;;;24.04;39.98;101150.23;1670851;83;21058;-88
2022/07/07 08:46:22;;;;;;;4.28;0.80;;;;;;;24.05;40.09;101145.73;1670812;83;21165;-87
2022/07/07 08:48:51;;;;;;;2.98;0.68;;;;;;;23.98;39.88;101143.64;1678607;84;21729;-87
2022/07/07 08:51:18;;;;;;;6.42;0.80;;;;;;;23.94;39.90;101143.77;1694926;84;21066;-87
2022/07/07 08:53:49;;;;;;;4.03;1.00;;;;;;;24.03;40.20;101145.77;1684195;84;22172;-87
2022/07/07 08:56:16;;;;;;;4.60;0.93;;;;;;;24.04;39.97;101144.86;1680271;83;21066;-88
2022/07/07 08:58:44;;;;;;;4.00;0.90;;;;;;;24.06;39.72;101140.76;1676780;83;21105;-88
2022/07/07 09:01:11;;;;;;;5.12;0.78;;;;;;;24.03;39.56;101143.55;1674187;84;21789;-87
2022/07/07 09:03:38;;;;;;;3.00;0.70;;;;;;;24.04;39.52;101142.61;1675164;84;21094;-87
2022/07/07 09:06:06;;;;;;;2.05;0.70;;;;;;;24.17;39.39;101139.16;1677789;84;21059;-87
2022/07/07 09:08:33;;;;;;;4.15;1.12;;;;;;;24.30;39.34;101152.71;1694759;84;21100;-88
2022/07/07 09:11:00;;;;;;;3.87;0.75;;;;;;;24.33;39.05;101151.30;1658559;84;21576;-89
2022/07/07 09:13:32;;;;;;;3.58;0.90;;;;;;;24.33;38.80;101143.70;1693609;84;22462;-89
2022/07/07 09:16:07;;;;;;;2.05;0.70;;;;;;;24.34;38.93;101143.62;1671563;84;21093;-89
2022/07/07 09:18:35;;;;;;;2.98;0.75;;;;;;;24.48;39.00;101132.53;1692888;84;28958;-88
2022/07/07 09:21:05;;;;;;;3.75;1.00;;;;;;;24.52;38.37;101134.23;1688470;84;21269;-88
2022/07/07 09:23:33;;;;;;;3.25;0.98;;;;;;;24.55;38.27;101128.78;1671133;84;21101;-88
2022/07/07 09:26:07;;;;;;;1.75;0.78;;;;;;;24.55;38.34;101138.20;1655565;85;22215;-89
2022/07/07 09:28:32;;;;;;;2.35;0.82;;;;;;;24.59;38.24;101136.31;1687031;84;21095;-88
2022/07/07 09:30:59;;;;;;;3.22;0.85;;;;;;;24.64;38.23;101127.63;1673784;84;21046;-89
2022/07/07 09:33:26;;;;;;;2.80;0.68;;;;;;;24.61;38.00;101130.42;1684913;84;21070;-88
2022/07/07 09:38:41;;;;;;;3.25;1.15;;;;;;;24.70;37.83;101131.52;1672745;84;21971;-90
2022/07/07 09:41:13;;;;;;;1.92;0.60;;;;;;;24.78;37.88;101129.95;1656326;84;21578;-88
2022/07/07 09:43:51;;;;;;;2.22;0.80;;;;;;;24.87;37.77;101127.01;1661002;83;21144;-87
2022/07/07 09:46:25;;;;;;;1.95;0.90;;;;;;;24.99;37.91;101123.94;1670013;85;21067;-86
2022/07/07 09:48:55;;;;;;;3.10;0.78;;;;;;;25.19;37.69;101129.23;1681698;84;21622;-88
2022/07/07 09:51:29;;;;;;;3.52;0.88;;;;;;;25.28;37.71;101124.04;1679174;85;21698;-88
2022/07/07 09:54:04;;;;;;;2.12;0.90;;;;;;;25.39;37.64;101129.52;1666481;86;21061;-88
2022/07/07 09:56:41;;;;;;;1.92;0.82;;;;;;;25.59;37.68;101128.91;1676079;83;21022;-88
2022/07/07 09:59:14;;;;;;;2.33;0.85;;;;;;;25.85;37.49;101121.80;1684054;83;21264;-88
2022/07/07 10:01:44;;;;;;;3.80;0.70;;;;;;;25.95;37.05;101130.02;1667234;84;21661;-88
2022/07/07 10:04:14;;;;;;;1.57;0.78;;;;;;;25.95;36.75;101130.50;1672692;85;21329;-88
2022/07/07 10:06:43;;;;;;;0.95;0.60;;;;;;;25.79;36.57;101128.28;1671421;83;21141;-88
2022/07/07 10:09:12;;;;;;;4.08;0.80;;;;;;;25.71;36.83;101128.97;1666820;84;21682;-88
2022/07/07 10:11:46;;;;;;;4.20;0.88;;;;;;;25.69;36.76;101132.66;1677284;85;21161;-88
2022/07/07 10:14:21;;;;;;;3.22;1.25;;;;;;;25.68;36.97;101131.78;1664079;83;21088;-88
2022/07/07 10:16:50;;;;;;;2.70;0.70;;;;;;;25.80;37.14;101122.41;1681803;85;21723;-87
2022/07/07 10:19:23;;;;;;;2.10;0.88;;;;;;;25.86;37.21;101121.33;1682376;84;21042;-87
2022/07/07 10:21:55;;;;;;;2.33;0.70;;;;;;;25.86;37.14;101128.06;1680896;84;21078;-87
2022/07/07 10:24:28;;;;;;;2.00;0.72;;;;;;;26.04;37.14;101127.50;1661465;85;21105;-88
2022/07/07 10:26:58;;;;;;;1.82;0.65;;;;;;;26.29;36.95;101125.31;1680729;84;21077;-88
2022/07/07 10:29:46;;;;;;;4.58;1.25;;;;;;;26.32;36.63;101121.17;1679183;84;21788;-87
2022/07/07 10:32:18;;;;;;;3.58;0.98;;;;;;;26.36;36.58;101126.39;1679893;84;21584;-86
2022/07/07 10:34:53;;;;;;;1.65;0.80;;;;;;;26.29;36.48;101129.36;1695864;84;21587;-87
2022/07/07 10:37:21;;;;;;;1.62;0.80;;;;;;;26.18;36.54;101117.13;1652134;84;21089;-89
2022/07/07 10:39:51;;;;;;;4.33;0.70;;;;;;;26.34;36.60;101120.17;1680756;84;21069;-87
2022/07/07 10:42:31;;;;;;;3.20;0.85;;;;;;;26.40;36.61;101123.12;1689749;84;21769;-88
2022/07/07 10:44:58;;;;;;;1.65;0.90;;;;;;;26.50;36.60;101127.28;1687138;84;21069;-86
2022/07/07 10:47:27;;;;;;;4.12;1.00;;;;;;;26.53;36.44;101121.75;1676324;84;21078;-88
2022/07/07 10:49:59;;;;;;;2.12;0.50;;;;;;;26.79;36.33;101125.37;1678430;85;21223;-90
2022/07/07 10:52:41;;;;;;;5.10;0.80;;;;;;;26.93;36.23;101128.45;1655778;85;21097;-90
2022/07/07 10:55:08;;;;;;;3.55;0.85;;;;;;;27.06;36.26;101127.50;1684412;85;21803;-92
2022/07/07 10:57:46;;;;;;;6.60;1.25;;;;;;;27.16;36.00;101128.05;1684225;85;21088;-89
2022/07/07 11:00:28;;;;;;;2.27;1.00;;;;;;;27.11;35.98;101132.27;1688666;84;21132;-92
2022/07/07 11:03:13;;;;;;;2.12;1.17;;;;;;;26.94;36.16;101132.90;1690078;84;21086;-92
2022/07/07 11:05:44;;;;;;;2.40;0.98;;;;;;;26.82;36.24;101133.34;1676456;84;21089;-90
2022/07/07 11:08:13;;;;;;;2.60;0.93;;;;;;;26.70;36.28;101132.45;1671675;84;21264;-90
2022/07/07 11:10:46;;;;;;;1.65;0.80;;;;;;;26.53;36.33;101135.25;1685642;84;21100;-90
2022/07/07 11:13:36;;;;;;;7.50;0.90;;;;;;;26.25;36.49;101131.75;1676584;83;21084;-90
2022/07/07 11:16:14;;;;;;;2.95;1.05;;;;;;;25.94;36.58;101133.67;1685008;84;21305;-90
2022/07/07 11:18:56;;;;;;;3.85;0.85;;;;;;;25.64;36.79;101136.86;1665149;84;21369;-89
2022/07/07 11:21:50;;;;;;;3.05;0.80;;;;;;;25.41;37.04;101133.07;1690105;84;21743;-90
2022/07/07 11:24:23;;;;;;;2.92;1.02;;;;;;;25.35;37.31;101137.27;1689480;83;21559;-88
2022/07/07 11:27:02;;;;;;;3.77;0.72;;;;;;;25.46;37.40;101136.95;1714426;83;21057;-90
2022/07/07 11:29:36;;;;;;;2.30;0.90;;;;;;;25.60;37.59;101136.52;1667677;85;21076;-90
2022/07/07 11:32:09;;;;;;;1.87;0.68;;;;;;;25.62;37.51;101117.16;1680395;83;21061;-90
2022/07/07 11:34:48;;;;;;;2.12;0.62;;;;;;;25.64;37.47;101128.78;1690136;83;21781;-89
2022/07/07 11:37:21;;;;;;;4.17;0.90;;;;;;;25.37;37.57;101132.72;1695655;83;21085;-90
2022/07/07 11:39:48;;;;;;;2.40;0.95;;;;;;;25.26;37.72;101136.68;1688189;83;21109;-90
2022/07/07 11:42:16;;;;;;;4.42;1.00;;;;;;;25.13;37.86;101134.33;1676258;84;21221;-86
2022/07/07 11:44:43;;;;;;;5.00;0.90;;;;;;;24.99;38.09;101136.06;1675963;84;21418;-88
2022/07/07 11:47:12;;;;;;;4.53;1.20;;;;;;;24.77;38.11;101137.12;1648713;84;21769;-88